CTSO2: Bird Creek At Catoosa

                                SHEF ID:       CTSO2     Bird Ck at State Highway 266 nea
STATION TYPE:
Regulating: Stage = 26.00, Flow = 20953

STAGE STAGE(2) RIV-FLOW WTR-TEMP DIS-OXY PH CONDUCT BAT-LOAD
ft ft cfs F mg/l su umho/cm volt
Ccp-Rev Ccp-Rev Ccp-Rev Ccp-Rev Ccp-Rev Ccp-Rev Ccp-Rev Ccp-Rev
(America/Chicago)
02/18 00:00 4.06 3.42 171 56.59 9.59 7.91 509 12.08
02/18 01:00 4.06 3.42 171 56.66 9.57 7.92 509 12.26
02/18 02:00 4.05 3.42 169 56.68 9.60 7.92 513 12.21
02/18 03:00 4.04 3.43 167 56.66 9.54 7.91 516 12.22
02/18 04:00 4.02 3.42 163 56.61 9.38 7.92 517 12.21
02/18 05:00 4.00 3.42 159 56.53 9.36 7.90 508 12.11
02/18 06:00 3.98 3.42 155 56.55 9.30 7.90 512 12.07
02/18 07:00 3.96 3.42 151 56.73 9.41 7.98 510 12.07
02/18 08:00 3.98 3.42 155 57.00 9.36 7.93 516 12.37
02/18 09:00 3.97 3.43 153 57.40 9.41 7.94 521 13.38
02/18 10:00 3.99 3.42 157 57.76 9.53 7.96 527 13.20
02/18 11:00 4.00 3.42 159 58.03 9.66 7.95 538 13.00
02/18 12:00 4.04 3.42 167 58.24 9.76 8.01 543 12.79
02/18 13:00 4.03 3.42 165 58.39 9.82 7.94 545 12.71
02/18 14:00 4.08 3.42 176 58.39 9.83 7.99 548 12.70
02/18 15:00 4.09 3.42 178 58.30 9.70 7.98 549 12.51
02/18 16:00 4.10 3.42 180 58.15 9.65 7.96 550 12.75
02/18 17:00 4.10 3.42 180 57.99 9.57 7.92 546 12.42
02/18 18:00 4.08 3.42 176 57.78 9.50 7.92 540 12.29
02/18 19:00 4.08 3.42 176 57.60 9.45 7.91 537 12.14
02/18 20:00 4.06 3.42 171 57.54 9.42 7.91 535 12.14
02/18 21:00 4.08 3.43 176 57.51 9.43 7.91 531 12.08
02/18 22:00 4.08 3.42 176 57.45 9.45 7.90 531 12.06
02/18 23:00 ---- ---- ---- ---- ---- ---- ---- ----
Data processed at Thu 19Feb2026 05:21 GMT

NOTICE: If you are parsing this page

Please convert to using our Data API. Starting early 2026 we will be migrating to: https://water.usace.army.mil with modern pages rendered in JavaScript. When this migration completes you will no longer be able to scrape this page! CWMSDataAPI (CDA)

Timeseries IDs (TSIDs)

TSIDs used from left to right in the data table
CATB.Stage.Inst.1Hour.0.Ccp-Rev
CATB.Stage-Alt.Inst.1Hour.0.Ccp-Rev
CATB.Flow.Inst.1Hour.0.Ccp-Rev
CATB.Temp-Water.Inst.1Hour.0.Ccp-Rev
CATB.Conc-DO.Inst.1Hour.0.Ccp-Rev
CATB.pH.Inst.1Hour.0.Ccp-Rev
CATB.Cond-Water.Inst.1Hour.0.Ccp-Rev
CATB.Volt-Battery Load.Inst.1Hour.0.Ccp-Rev

                            

All information presented herein is the property of the government of the United States of America and may be revised or deleted at any time without prior notice. Dissemination of this information without the expressed written consent of the Public Affairs Office, Tulsa District U.S. Army Corps of Engineers is strictly prohibited. These data are gathered electronically and, as presented, have NOT undergone any form of quality control. These data are NOT guaranteed to be valid or correct.